sensor_id;sensor_type;location;lat;lon;timestamp;P1;durP1;ratioP1;P2;durP2;ratioP2
22634;SDS011;11484;50.858;4.384;2023-06-01T00:02:25;12.90;;;6.80;;
22634;SDS011;11484;50.858;4.384;2023-06-01T00:04:51;11.38;;;6.32;;
22634;SDS011;11484;50.858;4.384;2023-06-01T00:07:17;11.48;;;6.32;;
22634;SDS011;11484;50.858;4.384;2023-06-01T00:09:42;13.02;;;6.40;;
22634;SDS011;11484;50.858;4.384;2023-06-01T00:12:08;12.02;;;6.68;;
22634;SDS011;11484;50.858;4.384;2023-06-01T00:14:34;12.60;;;6.60;;
22634;SDS011;11484;50.858;4.384;2023-06-01T00:17:00;10.13;;;6.47;;
22634;SDS011;11484;50.858;4.384;2023-06-01T00:19:36;12.65;;;6.50;;
22634;SDS011;11484;50.858;4.384;2023-06-01T00:22:03;12.55;;;6.55;;
22634;SDS011;11484;50.858;4.384;2023-06-01T00:24:32;14.82;;;7.00;;
22634;SDS011;11484;50.858;4.384;2023-06-01T00:26:58;10.70;;;6.07;;
22634;SDS011;11484;50.858;4.384;2023-06-01T00:29:29;10.90;;;6.70;;
22634;SDS011;11484;50.858;4.384;2023-06-01T00:31:55;13.68;;;6.63;;
22634;SDS011;11484;50.858;4.384;2023-06-01T00:34:21;11.32;;;7.15;;
22634;SDS011;11484;50.858;4.384;2023-06-01T00:36:46;15.80;;;6.95;;
22634;SDS011;11484;50.858;4.384;2023-06-01T00:39:12;12.77;;;6.47;;
22634;SDS011;11484;50.858;4.384;2023-06-01T00:41:38;10.35;;;6.63;;
22634;SDS011;11484;50.858;4.384;2023-06-01T00:44:03;10.40;;;6.53;;
22634;SDS011;11484;50.858;4.384;2023-06-01T00:46:29;11.88;;;7.15;;
22634;SDS011;11484;50.858;4.384;2023-06-01T00:48:57;12.20;;;6.78;;
22634;SDS011;11484;50.858;4.384;2023-06-01T00:51:23;10.35;;;6.43;;
22634;SDS011;11484;50.858;4.384;2023-06-01T00:53:49;11.90;;;7.20;;
22634;SDS011;11484;50.858;4.384;2023-06-01T00:56:16;11.23;;;6.80;;
22634;SDS011;11484;50.858;4.384;2023-06-01T00:58:42;11.85;;;6.93;;
22634;SDS011;11484;50.858;4.384;2023-06-01T01:01:09;11.45;;;7.30;;
22634;SDS011;11484;50.858;4.384;2023-06-01T01:03:43;13.18;;;7.18;;
22634;SDS011;11484;50.858;4.384;2023-06-01T01:11:35;11.23;;;6.70;;
22634;SDS011;11484;50.858;4.384;2023-06-01T01:16:59;11.35;;;6.55;;
22634;SDS011;11484;50.858;4.384;2023-06-01T01:19:42;13.13;;;7.82;;
22634;SDS011;11484;50.858;4.384;2023-06-01T01:27:23;12.05;;;7.38;;
22634;SDS011;11484;50.858;4.384;2023-06-01T01:30:02;13.20;;;7.03;;
22634;SDS011;11484;50.858;4.384;2023-06-01T01:32:32;12.48;;;7.05;;
22634;SDS011;11484;50.858;4.384;2023-06-01T01:35:00;12.18;;;6.93;;
22634;SDS011;11484;50.858;4.384;2023-06-01T01:37:27;13.32;;;7.57;;
22634;SDS011;11484;50.858;4.384;2023-06-01T01:39:52;11.32;;;7.90;;
22634;SDS011;11484;50.858;4.384;2023-06-01T01:42:18;13.63;;;7.25;;
22634;SDS011;11484;50.858;4.384;2023-06-01T01:44:44;15.73;;;7.20;;
22634;SDS011;11484;50.858;4.384;2023-06-01T01:47:24;13.77;;;7.53;;
22634;SDS011;11484;50.858;4.384;2023-06-01T01:50:06;14.05;;;7.68;;
22634;SDS011;11484;50.858;4.384;2023-06-01T01:52:37;14.63;;;7.90;;
22634;SDS011;11484;50.858;4.384;2023-06-01T01:55:07;14.35;;;7.78;;
22634;SDS011;11484;50.858;4.384;2023-06-01T01:57:34;12.07;;;7.00;;
22634;SDS011;11484;50.858;4.384;2023-06-01T02:00:01;14.80;;;7.50;;
22634;SDS011;11484;50.858;4.384;2023-06-01T02:02:28;13.82;;;8.32;;
22634;SDS011;11484;50.858;4.384;2023-06-01T02:04:55;15.18;;;8.52;;
22634;SDS011;11484;50.858;4.384;2023-06-01T02:07:21;13.35;;;7.70;;
22634;SDS011;11484;50.858;4.384;2023-06-01T02:09:47;12.00;;;7.65;;
22634;SDS011;11484;50.858;4.384;2023-06-01T02:12:12;12.48;;;7.72;;
22634;SDS011;11484;50.858;4.384;2023-06-01T02:14:38;13.88;;;8.27;;
22634;SDS011;11484;50.858;4.384;2023-06-01T02:17:04;14.75;;;8.25;;
22634;SDS011;11484;50.858;4.384;2023-06-01T02:19:30;13.18;;;8.13;;
22634;SDS011;11484;50.858;4.384;2023-06-01T02:21:56;16.38;;;7.93;;
22634;SDS011;11484;50.858;4.384;2023-06-01T02:24:22;14.00;;;8.40;;
22634;SDS011;11484;50.858;4.384;2023-06-01T02:26:47;15.80;;;8.10;;
22634;SDS011;11484;50.858;4.384;2023-06-01T02:29:17;13.77;;;8.38;;
22634;SDS011;11484;50.858;4.384;2023-06-01T02:31:44;13.23;;;8.32;;
22634;SDS011;11484;50.858;4.384;2023-06-01T02:34:10;13.93;;;8.30;;
22634;SDS011;11484;50.858;4.384;2023-06-01T02:36:36;16.42;;;8.40;;
22634;SDS011;11484;50.858;4.384;2023-06-01T02:39:02;18.67;;;8.27;;
22634;SDS011;11484;50.858;4.384;2023-06-01T02:41:27;15.05;;;8.63;;
22634;SDS011;11484;50.858;4.384;2023-06-01T02:43:53;16.50;;;8.40;;
22634;SDS011;11484;50.858;4.384;2023-06-01T02:46:19;17.02;;;8.82;;
22634;SDS011;11484;50.858;4.384;2023-06-01T02:48:45;15.05;;;8.35;;
22634;SDS011;11484;50.858;4.384;2023-06-01T02:51:11;19.75;;;9.10;;
22634;SDS011;11484;50.858;4.384;2023-06-01T02:53:42;16.98;;;9.30;;
22634;SDS011;11484;50.858;4.384;2023-06-01T02:56:07;16.15;;;8.82;;
22634;SDS011;11484;50.858;4.384;2023-06-01T02:58:33;18.27;;;9.18;;
22634;SDS011;11484;50.858;4.384;2023-06-01T03:00:59;17.25;;;9.02;;
22634;SDS011;11484;50.858;4.384;2023-06-01T03:03:26;17.63;;;9.13;;
22634;SDS011;11484;50.858;4.384;2023-06-01T03:05:52;17.52;;;9.57;;
22634;SDS011;11484;50.858;4.384;2023-06-01T03:08:18;15.88;;;9.45;;
22634;SDS011;11484;50.858;4.384;2023-06-01T03:10:44;17.77;;;9.57;;
22634;SDS011;11484;50.858;4.384;2023-06-01T03:13:10;15.75;;;9.13;;
22634;SDS011;11484;50.858;4.384;2023-06-01T03:15:37;18.58;;;9.95;;
22634;SDS011;11484;50.858;4.384;2023-06-01T03:18:05;17.38;;;9.80;;
22634;SDS011;11484;50.858;4.384;2023-06-01T03:20:32;19.73;;;9.48;;
22634;SDS011;11484;50.858;4.384;2023-06-01T03:22:58;18.40;;;10.57;;
22634;SDS011;11484;50.858;4.384;2023-06-01T03:25:23;20.90;;;11.00;;
22634;SDS011;11484;50.858;4.384;2023-06-01T03:27:52;20.30;;;10.50;;
22634;SDS011;11484;50.858;4.384;2023-06-01T03:30:17;22.42;;;10.20;;
22634;SDS011;11484;50.858;4.384;2023-06-01T03:32:44;19.50;;;9.57;;
22634;SDS011;11484;50.858;4.384;2023-06-01T03:35:10;17.92;;;9.52;;
22634;SDS011;11484;50.858;4.384;2023-06-01T03:37:37;19.23;;;9.68;;
22634;SDS011;11484;50.858;4.384;2023-06-01T03:40:05;19.67;;;9.80;;
22634;SDS011;11484;50.858;4.384;2023-06-01T03:42:36;22.23;;;10.23;;
22634;SDS011;11484;50.858;4.384;2023-06-01T03:45:12;21.30;;;11.27;;
22634;SDS011;11484;50.858;4.384;2023-06-01T03:47:38;22.30;;;10.90;;
22634;SDS011;11484;50.858;4.384;2023-06-01T03:50:05;22.75;;;12.48;;
22634;SDS011;11484;50.858;4.384;2023-06-01T03:52:33;20.25;;;9.98;;
22634;SDS011;11484;50.858;4.384;2023-06-01T03:54:59;18.70;;;11.23;;
22634;SDS011;11484;50.858;4.384;2023-06-01T03:57:33;19.30;;;10.48;;
22634;SDS011;11484;50.858;4.384;2023-06-01T03:59:59;23.10;;;10.43;;
22634;SDS011;11484;50.858;4.384;2023-06-01T04:02:25;21.48;;;10.38;;
22634;SDS011;11484;50.858;4.384;2023-06-01T04:04:51;21.15;;;11.57;;
22634;SDS011;11484;50.858;4.384;2023-06-01T04:07:17;19.85;;;10.50;;
22634;SDS011;11484;50.858;4.384;2023-06-01T04:09:47;18.25;;;10.45;;
22634;SDS011;11484;50.858;4.384;2023-06-01T04:12:13;20.83;;;10.90;;
22634;SDS011;11484;50.858;4.384;2023-06-01T04:14:40;22.83;;;11.02;;
22634;SDS011;11484;50.858;4.384;2023-06-01T04:17:06;20.38;;;10.82;;
22634;SDS011;11484;50.858;4.384;2023-06-01T04:19:32;20.67;;;10.63;;
22634;SDS011;11484;50.858;4.384;2023-06-01T04:21:59;23.63;;;11.00;;
22634;SDS011;11484;50.858;4.384;2023-06-01T04:24:25;24.10;;;11.55;;
22634;SDS011;11484;50.858;4.384;2023-06-01T04:26:50;22.00;;;10.77;;
22634;SDS011;11484;50.858;4.384;2023-06-01T04:29:16;22.35;;;11.43;;
22634;SDS011;11484;50.858;4.384;2023-06-01T04:31:44;19.90;;;11.00;;
22634;SDS011;11484;50.858;4.384;2023-06-01T04:34:11;17.85;;;10.65;;
22634;SDS011;11484;50.858;4.384;2023-06-01T04:36:37;19.73;;;12.00;;
22634;SDS011;11484;50.858;4.384;2023-06-01T04:39:07;21.40;;;11.18;;
22634;SDS011;11484;50.858;4.384;2023-06-01T04:41:33;20.35;;;11.27;;
22634;SDS011;11484;50.858;4.384;2023-06-01T04:44:03;21.80;;;11.90;;
22634;SDS011;11484;50.858;4.384;2023-06-01T04:46:32;23.33;;;10.85;;
22634;SDS011;11484;50.858;4.384;2023-06-01T04:49:00;22.77;;;11.68;;
22634;SDS011;11484;50.858;4.384;2023-06-01T04:51:26;23.60;;;11.07;;
22634;SDS011;11484;50.858;4.384;2023-06-01T04:53:54;19.55;;;10.88;;
22634;SDS011;11484;50.858;4.384;2023-06-01T04:56:23;20.60;;;11.35;;
22634;SDS011;11484;50.858;4.384;2023-06-01T04:58:50;19.20;;;10.52;;
22634;SDS011;11484;50.858;4.384;2023-06-01T05:01:16;21.52;;;11.18;;
22634;SDS011;11484;50.858;4.384;2023-06-01T05:03:43;20.50;;;10.88;;
22634;SDS011;11484;50.858;4.384;2023-06-01T05:06:10;18.27;;;10.43;;
22634;SDS011;11484;50.858;4.384;2023-06-01T05:08:37;23.23;;;12.20;;
22634;SDS011;11484;50.858;4.384;2023-06-01T05:11:07;24.13;;;10.67;;
22634;SDS011;11484;50.858;4.384;2023-06-01T05:13:34;21.83;;;11.43;;
22634;SDS011;11484;50.858;4.384;2023-06-01T05:16:00;21.73;;;11.80;;
22634;SDS011;11484;50.858;4.384;2023-06-01T05:18:27;21.27;;;11.73;;
22634;SDS011;11484;50.858;4.384;2023-06-01T05:20:53;22.98;;;12.07;;
22634;SDS011;11484;50.858;4.384;2023-06-01T05:23:19;20.35;;;11.25;;
22634;SDS011;11484;50.858;4.384;2023-06-01T05:25:45;21.77;;;11.82;;
22634;SDS011;11484;50.858;4.384;2023-06-01T05:28:10;23.88;;;12.55;;
22634;SDS011;11484;50.858;4.384;2023-06-01T05:30:36;25.40;;;12.60;;
22634;SDS011;11484;50.858;4.384;2023-06-01T05:33:02;22.80;;;12.55;;
22634;SDS011;11484;50.858;4.384;2023-06-01T05:35:29;24.52;;;12.95;;
22634;SDS011;11484;50.858;4.384;2023-06-01T05:37:56;27.27;;;14.30;;
22634;SDS011;11484;50.858;4.384;2023-06-01T05:40:22;28.20;;;13.20;;
22634;SDS011;11484;50.858;4.384;2023-06-01T05:42:47;25.63;;;14.07;;
22634;SDS011;11484;50.858;4.384;2023-06-01T05:45:13;25.25;;;14.00;;
22634;SDS011;11484;50.858;4.384;2023-06-01T05:47:39;26.65;;;14.43;;
22634;SDS011;11484;50.858;4.384;2023-06-01T05:50:05;26.45;;;14.15;;
22634;SDS011;11484;50.858;4.384;2023-06-01T05:52:32;25.40;;;14.48;;
22634;SDS011;11484;50.858;4.384;2023-06-01T05:54:57;23.50;;;14.23;;
22634;SDS011;11484;50.858;4.384;2023-06-01T05:57:23;24.77;;;14.38;;
22634;SDS011;11484;50.858;4.384;2023-06-01T05:59:49;28.50;;;13.77;;
22634;SDS011;11484;50.858;4.384;2023-06-01T06:02:14;24.88;;;14.02;;
22634;SDS011;11484;50.858;4.384;2023-06-01T06:04:41;26.80;;;13.95;;
22634;SDS011;11484;50.858;4.384;2023-06-01T06:07:09;23.35;;;13.90;;
22634;SDS011;11484;50.858;4.384;2023-06-01T06:09:35;24.38;;;13.18;;
22634;SDS011;11484;50.858;4.384;2023-06-01T06:12:00;24.08;;;13.57;;
22634;SDS011;11484;50.858;4.384;2023-06-01T06:14:26;24.02;;;13.57;;
22634;SDS011;11484;50.858;4.384;2023-06-01T06:16:52;28.35;;;14.52;;
22634;SDS011;11484;50.858;4.384;2023-06-01T06:19:18;27.88;;;14.40;;
22634;SDS011;11484;50.858;4.384;2023-06-01T06:21:44;26.52;;;14.38;;
22634;SDS011;11484;50.858;4.384;2023-06-01T06:24:10;27.42;;;14.60;;
22634;SDS011;11484;50.858;4.384;2023-06-01T06:26:35;26.17;;;15.38;;
22634;SDS011;11484;50.858;4.384;2023-06-01T06:29:01;25.08;;;14.73;;
22634;SDS011;11484;50.858;4.384;2023-06-01T06:31:27;30.20;;;15.30;;
22634;SDS011;11484;50.858;4.384;2023-06-01T06:33:52;32.53;;;15.95;;
22634;SDS011;11484;50.858;4.384;2023-06-01T06:36:18;26.30;;;15.20;;
22634;SDS011;11484;50.858;4.384;2023-06-01T06:38:44;33.55;;;19.17;;
22634;SDS011;11484;50.858;4.384;2023-06-01T06:41:10;27.98;;;15.57;;
22634;SDS011;11484;50.858;4.384;2023-06-01T06:43:36;27.90;;;14.90;;
22634;SDS011;11484;50.858;4.384;2023-06-01T06:46:02;25.25;;;14.15;;
22634;SDS011;11484;50.858;4.384;2023-06-01T06:48:29;25.63;;;14.98;;
22634;SDS011;11484;50.858;4.384;2023-06-01T06:50:55;25.00;;;14.13;;
22634;SDS011;11484;50.858;4.384;2023-06-01T06:53:21;26.42;;;15.15;;
22634;SDS011;11484;50.858;4.384;2023-06-01T06:55:47;24.30;;;14.38;;
22634;SDS011;11484;50.858;4.384;2023-06-01T06:58:13;25.92;;;14.82;;
22634;SDS011;11484;50.858;4.384;2023-06-01T07:00:39;25.63;;;14.75;;
22634;SDS011;11484;50.858;4.384;2023-06-01T07:03:06;24.45;;;14.65;;
22634;SDS011;11484;50.858;4.384;2023-06-01T07:05:32;23.08;;;14.38;;
22634;SDS011;11484;50.858;4.384;2023-06-01T07:07:58;23.60;;;14.07;;
22634;SDS011;11484;50.858;4.384;2023-06-01T07:10:24;22.73;;;13.32;;
22634;SDS011;11484;50.858;4.384;2023-06-01T07:12:50;24.60;;;13.63;;
22634;SDS011;11484;50.858;4.384;2023-06-01T07:15:16;24.13;;;14.30;;
22634;SDS011;11484;50.858;4.384;2023-06-01T07:17:42;21.05;;;12.13;;
22634;SDS011;11484;50.858;4.384;2023-06-01T07:20:08;24.02;;;14.18;;
22634;SDS011;11484;50.858;4.384;2023-06-01T07:22:37;19.88;;;12.32;;
22634;SDS011;11484;50.858;4.384;2023-06-01T07:25:04;22.98;;;12.70;;
22634;SDS011;11484;50.858;4.384;2023-06-01T07:27:31;18.55;;;11.77;;
22634;SDS011;11484;50.858;4.384;2023-06-01T07:30:04;20.80;;;12.98;;
22634;SDS011;11484;50.858;4.384;2023-06-01T07:32:30;17.80;;;12.00;;
22634;SDS011;11484;50.858;4.384;2023-06-01T07:34:56;17.80;;;11.18;;
22634;SDS011;11484;50.858;4.384;2023-06-01T07:39:55;19.73;;;12.25;;
22634;SDS011;11484;50.858;4.384;2023-06-01T07:42:21;21.77;;;12.10;;
22634;SDS011;11484;50.858;4.384;2023-06-01T07:44:47;17.25;;;11.20;;
22634;SDS011;11484;50.858;4.384;2023-06-01T07:47:12;18.35;;;11.68;;
22634;SDS011;11484;50.858;4.384;2023-06-01T07:49:38;16.98;;;11.27;;
22634;SDS011;11484;50.858;4.384;2023-06-01T07:52:05;17.67;;;11.02;;
22634;SDS011;11484;50.858;4.384;2023-06-01T07:54:32;19.52;;;11.82;;
22634;SDS011;11484;50.858;4.384;2023-06-01T07:57:00;18.90;;;11.20;;
22634;SDS011;11484;50.858;4.384;2023-06-01T07:59:27;17.73;;;11.27;;
22634;SDS011;11484;50.858;4.384;2023-06-01T08:01:54;20.67;;;11.52;;
22634;SDS011;11484;50.858;4.384;2023-06-01T08:04:21;15.35;;;10.85;;
22634;SDS011;11484;50.858;4.384;2023-06-01T08:06:48;16.55;;;10.63;;
22634;SDS011;11484;50.858;4.384;2023-06-01T08:09:18;21.27;;;11.23;;
22634;SDS011;11484;50.858;4.384;2023-06-01T08:11:48;21.85;;;11.70;;
22634;SDS011;11484;50.858;4.384;2023-06-01T08:14:15;18.73;;;12.05;;
22634;SDS011;11484;50.858;4.384;2023-06-01T08:16:41;19.65;;;11.75;;
22634;SDS011;11484;50.858;4.384;2023-06-01T08:19:08;20.45;;;11.98;;
22634;SDS011;11484;50.858;4.384;2023-06-01T08:21:34;20.52;;;11.90;;
22634;SDS011;11484;50.858;4.384;2023-06-01T08:24:02;21.45;;;12.50;;
22634;SDS011;11484;50.858;4.384;2023-06-01T08:26:28;19.88;;;12.13;;
22634;SDS011;11484;50.858;4.384;2023-06-01T08:28:54;21.90;;;12.38;;
22634;SDS011;11484;50.858;4.384;2023-06-01T08:31:21;19.40;;;11.90;;
22634;SDS011;11484;50.858;4.384;2023-06-01T08:49:07;18.25;;;10.52;;
22634;SDS011;11484;50.858;4.384;2023-06-01T08:51:34;16.27;;;11.10;;
22634;SDS011;11484;50.858;4.384;2023-06-01T08:54:03;21.05;;;11.63;;
22634;SDS011;11484;50.858;4.384;2023-06-01T08:56:30;15.48;;;10.68;;
22634;SDS011;11484;50.858;4.384;2023-06-01T08:58:56;17.38;;;10.48;;
22634;SDS011;11484;50.858;4.384;2023-06-01T09:01:22;17.45;;;10.57;;
22634;SDS011;11484;50.858;4.384;2023-06-01T09:03:50;16.38;;;10.25;;
22634;SDS011;11484;50.858;4.384;2023-06-01T09:06:16;16.33;;;10.50;;
22634;SDS011;11484;50.858;4.384;2023-06-01T09:08:44;15.02;;;9.82;;
22634;SDS011;11484;50.858;4.384;2023-06-01T09:11:11;17.42;;;10.70;;
22634;SDS011;11484;50.858;4.384;2023-06-01T09:13:37;18.83;;;11.93;;
22634;SDS011;11484;50.858;4.384;2023-06-01T09:16:04;14.77;;;10.38;;
22634;SDS011;11484;50.858;4.384;2023-06-01T09:18:31;14.25;;;9.82;;
22634;SDS011;11484;50.858;4.384;2023-06-01T09:21:12;14.50;;;9.38;;
22634;SDS011;11484;50.858;4.384;2023-06-01T09:23:40;13.35;;;9.57;;
22634;SDS011;11484;50.858;4.384;2023-06-01T09:26:17;14.45;;;9.57;;
22634;SDS011;11484;50.858;4.384;2023-06-01T09:28:58;13.25;;;9.40;;
22634;SDS011;11484;50.858;4.384;2023-06-01T09:31:41;14.68;;;9.75;;
22634;SDS011;11484;50.858;4.384;2023-06-01T09:34:20;13.55;;;9.88;;
22634;SDS011;11484;50.858;4.384;2023-06-01T09:39:14;12.07;;;9.20;;
22634;SDS011;11484;50.858;4.384;2023-06-01T09:41:57;14.82;;;9.38;;
22634;SDS011;11484;50.858;4.384;2023-06-01T09:44:30;15.77;;;10.05;;
22634;SDS011;11484;50.858;4.384;2023-06-01T09:47:02;13.73;;;8.75;;
22634;SDS011;11484;50.858;4.384;2023-06-01T09:54:31;14.43;;;8.95;;
22634;SDS011;11484;50.858;4.384;2023-06-01T09:56:58;16.08;;;9.38;;
22634;SDS011;11484;50.858;4.384;2023-06-01T09:59:28;14.40;;;10.15;;
22634;SDS011;11484;50.858;4.384;2023-06-01T10:01:56;13.43;;;8.80;;
22634;SDS011;11484;50.858;4.384;2023-06-01T10:04:26;15.50;;;9.27;;
22634;SDS011;11484;50.858;4.384;2023-06-01T10:06:57;12.63;;;8.43;;
22634;SDS011;11484;50.858;4.384;2023-06-01T10:09:23;17.13;;;8.90;;
22634;SDS011;11484;50.858;4.384;2023-06-01T10:11:52;13.52;;;8.57;;
22634;SDS011;11484;50.858;4.384;2023-06-01T10:14:19;14.98;;;9.18;;
22634;SDS011;11484;50.858;4.384;2023-06-01T10:16:51;10.98;;;8.40;;
22634;SDS011;11484;50.858;4.384;2023-06-01T10:19:19;14.65;;;8.38;;
22634;SDS011;11484;50.858;4.384;2023-06-01T10:21:47;11.13;;;7.85;;
22634;SDS011;11484;50.858;4.384;2023-06-01T10:24:13;13.13;;;8.27;;
22634;SDS011;11484;50.858;4.384;2023-06-01T10:29:54;14.20;;;8.98;;
22634;SDS011;11484;50.858;4.384;2023-06-01T10:35:06;11.30;;;8.23;;
22634;SDS011;11484;50.858;4.384;2023-06-01T10:37:33;14.85;;;8.38;;
22634;SDS011;11484;50.858;4.384;2023-06-01T10:42:49;15.88;;;8.80;;
22634;SDS011;11484;50.858;4.384;2023-06-01T10:48:06;12.10;;;7.57;;
22634;SDS011;11484;50.858;4.384;2023-06-01T10:50:37;10.93;;;8.02;;
22634;SDS011;11484;50.858;4.384;2023-06-01T11:01:45;14.13;;;9.15;;
22634;SDS011;11484;50.858;4.384;2023-06-01T11:04:12;16.02;;;8.43;;
22634;SDS011;11484;50.858;4.384;2023-06-01T11:06:39;15.73;;;9.32;;
22634;SDS011;11484;50.858;4.384;2023-06-01T11:09:06;14.10;;;8.35;;
22634;SDS011;11484;50.858;4.384;2023-06-01T11:14:27;14.32;;;8.68;;
22634;SDS011;11484;50.858;4.384;2023-06-01T11:19:43;15.73;;;9.20;;
22634;SDS011;11484;50.858;4.384;2023-06-01T11:22:09;17.98;;;9.13;;
22634;SDS011;11484;50.858;4.384;2023-06-01T11:24:37;14.32;;;8.48;;
22634;SDS011;11484;50.858;4.384;2023-06-01T11:27:07;16.50;;;8.80;;
22634;SDS011;11484;50.858;4.384;2023-06-01T11:29:34;16.17;;;9.98;;
22634;SDS011;11484;50.858;4.384;2023-06-01T11:32:01;18.35;;;9.10;;
22634;SDS011;11484;50.858;4.384;2023-06-01T11:34:35;21.60;;;10.25;;
22634;SDS011;11484;50.858;4.384;2023-06-01T11:37:12;17.77;;;9.10;;
22634;SDS011;11484;50.858;4.384;2023-06-01T11:39:39;15.63;;;9.02;;
22634;SDS011;11484;50.858;4.384;2023-06-01T11:44:39;14.30;;;8.93;;
22634;SDS011;11484;50.858;4.384;2023-06-01T11:47:07;17.08;;;9.05;;
22634;SDS011;11484;50.858;4.384;2023-06-01T11:49:46;16.30;;;9.05;;
22634;SDS011;11484;50.858;4.384;2023-06-01T11:52:13;15.93;;;9.27;;
22634;SDS011;11484;50.858;4.384;2023-06-01T11:54:39;14.93;;;9.07;;
22634;SDS011;11484;50.858;4.384;2023-06-01T11:57:05;16.52;;;9.73;;
22634;SDS011;11484;50.858;4.384;2023-06-01T12:04:55;16.05;;;9.93;;
22634;SDS011;11484;50.858;4.384;2023-06-01T12:07:22;15.52;;;8.80;;
22634;SDS011;11484;50.858;4.384;2023-06-01T12:09:48;15.23;;;9.27;;
22634;SDS011;11484;50.858;4.384;2023-06-01T12:12:14;17.52;;;9.45;;
22634;SDS011;11484;50.858;4.384;2023-06-01T12:14:42;17.20;;;9.23;;
22634;SDS011;11484;50.858;4.384;2023-06-01T12:17:08;14.82;;;8.95;;
22634;SDS011;11484;50.858;4.384;2023-06-01T12:19:44;14.32;;;8.18;;
22634;SDS011;11484;50.858;4.384;2023-06-01T12:22:11;14.43;;;8.70;;
22634;SDS011;11484;50.858;4.384;2023-06-01T12:24:37;14.85;;;8.65;;
22634;SDS011;11484;50.858;4.384;2023-06-01T12:27:12;14.70;;;9.02;;
22634;SDS011;11484;50.858;4.384;2023-06-01T12:29:45;12.20;;;8.25;;
22634;SDS011;11484;50.858;4.384;2023-06-01T12:32:12;13.63;;;8.25;;
22634;SDS011;11484;50.858;4.384;2023-06-01T12:34:41;14.00;;;8.63;;
22634;SDS011;11484;50.858;4.384;2023-06-01T12:37:14;18.17;;;9.98;;
22634;SDS011;11484;50.858;4.384;2023-06-01T12:39:52;18.08;;;9.80;;
22634;SDS011;11484;50.858;4.384;2023-06-01T12:42:19;12.55;;;9.07;;
22634;SDS011;11484;50.858;4.384;2023-06-01T12:44:58;14.00;;;8.65;;
22634;SDS011;11484;50.858;4.384;2023-06-01T12:47:24;16.52;;;8.60;;
22634;SDS011;11484;50.858;4.384;2023-06-01T12:50:06;15.95;;;8.15;;
22634;SDS011;11484;50.858;4.384;2023-06-01T12:52:37;12.30;;;7.18;;
22634;SDS011;11484;50.858;4.384;2023-06-01T12:55:04;14.82;;;7.63;;
22634;SDS011;11484;50.858;4.384;2023-06-01T12:57:31;10.63;;;6.50;;
22634;SDS011;11484;50.858;4.384;2023-06-01T13:00:00;16.67;;;7.85;;
22634;SDS011;11484;50.858;4.384;2023-06-01T13:02:29;13.40;;;7.07;;
22634;SDS011;11484;50.858;4.384;2023-06-01T13:04:55;16.27;;;7.75;;
22634;SDS011;11484;50.858;4.384;2023-06-01T13:07:23;16.02;;;8.75;;
22634;SDS011;11484;50.858;4.384;2023-06-01T13:09:48;16.52;;;9.00;;
22634;SDS011;11484;50.858;4.384;2023-06-01T13:12:15;16.67;;;9.52;;
22634;SDS011;11484;50.858;4.384;2023-06-01T13:14:40;14.02;;;8.23;;
22634;SDS011;11484;50.858;4.384;2023-06-01T13:17:06;18.27;;;8.18;;
22634;SDS011;11484;50.858;4.384;2023-06-01T13:19:32;17.13;;;8.50;;
22634;SDS011;11484;50.858;4.384;2023-06-01T13:21:58;12.10;;;7.18;;
22634;SDS011;11484;50.858;4.384;2023-06-01T13:24:24;14.43;;;7.97;;
22634;SDS011;11484;50.858;4.384;2023-06-01T13:26:50;12.40;;;7.40;;
22634;SDS011;11484;50.858;4.384;2023-06-01T13:29:16;12.40;;;6.97;;
22634;SDS011;11484;50.858;4.384;2023-06-01T13:31:49;13.15;;;7.47;;
22634;SDS011;11484;50.858;4.384;2023-06-01T13:34:16;12.57;;;7.10;;
22634;SDS011;11484;50.858;4.384;2023-06-01T13:36:45;9.47;;;5.40;;
22634;SDS011;11484;50.858;4.384;2023-06-01T13:39:12;12.75;;;7.35;;
22634;SDS011;11484;50.858;4.384;2023-06-01T13:41:38;14.77;;;7.43;;
22634;SDS011;11484;50.858;4.384;2023-06-01T13:44:05;12.70;;;7.47;;
22634;SDS011;11484;50.858;4.384;2023-06-01T13:46:31;12.82;;;6.72;;
22634;SDS011;11484;50.858;4.384;2023-06-01T13:48:57;11.57;;;6.35;;
22634;SDS011;11484;50.858;4.384;2023-06-01T13:51:23;14.02;;;6.38;;
22634;SDS011;11484;50.858;4.384;2023-06-01T13:53:49;15.05;;;6.45;;
22634;SDS011;11484;50.858;4.384;2023-06-01T13:56:15;13.35;;;6.10;;
22634;SDS011;11484;50.858;4.384;2023-06-01T13:58:41;14.40;;;6.85;;
22634;SDS011;11484;50.858;4.384;2023-06-01T14:01:07;10.73;;;6.32;;
22634;SDS011;11484;50.858;4.384;2023-06-01T14:03:32;10.75;;;5.97;;
22634;SDS011;11484;50.858;4.384;2023-06-01T14:05:58;11.52;;;5.88;;
22634;SDS011;11484;50.858;4.384;2023-06-01T14:08:24;12.68;;;6.40;;
22634;SDS011;11484;50.858;4.384;2023-06-01T14:10:50;12.82;;;6.63;;
22634;SDS011;11484;50.858;4.384;2023-06-01T14:13:16;9.82;;;5.60;;
22634;SDS011;11484;50.858;4.384;2023-06-01T14:15:43;11.52;;;5.13;;
22634;SDS011;11484;50.858;4.384;2023-06-01T14:18:09;8.02;;;4.35;;
22634;SDS011;11484;50.858;4.384;2023-06-01T14:20:36;10.07;;;4.85;;
22634;SDS011;11484;50.858;4.384;2023-06-01T14:23:02;8.52;;;4.57;;
22634;SDS011;11484;50.858;4.384;2023-06-01T14:25:28;8.52;;;4.90;;
22634;SDS011;11484;50.858;4.384;2023-06-01T14:27:54;8.43;;;4.13;;
22634;SDS011;11484;50.858;4.384;2023-06-01T14:30:20;12.15;;;4.25;;
22634;SDS011;11484;50.858;4.384;2023-06-01T14:32:46;8.73;;;3.95;;
22634;SDS011;11484;50.858;4.384;2023-06-01T14:35:11;8.35;;;3.97;;
22634;SDS011;11484;50.858;4.384;2023-06-01T14:37:42;9.13;;;4.63;;
22634;SDS011;11484;50.858;4.384;2023-06-01T14:40:08;11.98;;;5.03;;
22634;SDS011;11484;50.858;4.384;2023-06-01T14:42:34;8.60;;;4.28;;
22634;SDS011;11484;50.858;4.384;2023-06-01T14:45:01;8.52;;;4.60;;
22634;SDS011;11484;50.858;4.384;2023-06-01T14:47:27;8.73;;;5.22;;
22634;SDS011;11484;50.858;4.384;2023-06-01T14:49:53;11.40;;;4.80;;
22634;SDS011;11484;50.858;4.384;2023-06-01T14:52:19;9.38;;;4.63;;
22634;SDS011;11484;50.858;4.384;2023-06-01T14:54:44;7.93;;;4.53;;
22634;SDS011;11484;50.858;4.384;2023-06-01T14:57:10;7.85;;;4.47;;
22634;SDS011;11484;50.858;4.384;2023-06-01T14:59:36;7.53;;;4.53;;
22634;SDS011;11484;50.858;4.384;2023-06-01T15:02:02;6.93;;;4.30;;
22634;SDS011;11484;50.858;4.384;2023-06-01T15:04:29;8.85;;;4.72;;
22634;SDS011;11484;50.858;4.384;2023-06-01T15:06:54;11.27;;;5.35;;
22634;SDS011;11484;50.858;4.384;2023-06-01T15:09:20;9.27;;;5.55;;
22634;SDS011;11484;50.858;4.384;2023-06-01T15:11:46;11.77;;;6.05;;
22634;SDS011;11484;50.858;4.384;2023-06-01T15:14:12;9.93;;;5.53;;
22634;SDS011;11484;50.858;4.384;2023-06-01T15:16:37;9.07;;;5.20;;
22634;SDS011;11484;50.858;4.384;2023-06-01T15:19:03;9.68;;;5.20;;
22634;SDS011;11484;50.858;4.384;2023-06-01T15:21:29;12.43;;;4.65;;
22634;SDS011;11484;50.858;4.384;2023-06-01T15:23:54;9.75;;;5.07;;
22634;SDS011;11484;50.858;4.384;2023-06-01T15:26:21;10.88;;;5.47;;
22634;SDS011;11484;50.858;4.384;2023-06-01T15:28:47;10.52;;;5.18;;
22634;SDS011;11484;50.858;4.384;2023-06-01T15:31:13;10.40;;;5.35;;
22634;SDS011;11484;50.858;4.384;2023-06-01T15:33:39;9.02;;;5.38;;
22634;SDS011;11484;50.858;4.384;2023-06-01T15:36:04;9.48;;;6.10;;
22634;SDS011;11484;50.858;4.384;2023-06-01T15:38:31;15.00;;;5.93;;
22634;SDS011;11484;50.858;4.384;2023-06-01T15:40:56;11.88;;;6.55;;
22634;SDS011;11484;50.858;4.384;2023-06-01T15:43:22;9.82;;;5.68;;
22634;SDS011;11484;50.858;4.384;2023-06-01T15:45:48;12.02;;;7.22;;